Aérodrome :
LOGIN :

S'inscrire | Disclaimer

   EN    FR    IT 

 










Légende :    VFR   VFR Marginal   IFR   IFR Intensif   IFR Très Intensif
Visi : 
Plafond : 
>= 8 km
>= 3000ft
5 à 8 km
1000 à 3000 ft
1500m à 5 km
500 à 1000 ft
800 à 1500m
200 à 500 ft
< 800m
< 200 ft
Symboles :   Orages  Brouillard  Fortes neiges  Fortes précipitations  Vent > 20 kt
SIGMETs :   Divers  Orages  Givrage  Turbulence  Onde Orograph.  Cendres Volcan.






- Altitude de l'aérodrome : 276 ft


LYVR - Vršac International

DERNIER METAR :
  • 240800Z 22009KT 9999 SCT013 BKN023 12/11 Q1005 NOSIG

METARs EXPIRÉS :
  • 240730Z 23006KT 170V260 9999 SCT010 BKN023 12/11 Q1005 NOSIG
  • 240700Z 19007KT 160V220 9999 SCT010 BKN023 12/12 Q1005 NOSIG
  • 240630Z 18007KT 160V220 9999 SCT007 OVC017 11/11 Q1005 NOSIG
  • 240600Z 18008KT 9999 SCT007 OVC016 11/11 Q1005 NOSIG
  • 240530Z 17007KT 140V210 9999 SCT007 OVC013 11/11 Q1005 NOSIG
  • 240500Z AUTO 18008KT 9999 OVC012/// 10/10 Q1004
  • 240430Z AUTO 18008KT 9999 OVC008/// 10/10 Q1005
  • 240400Z AUTO 19009KT 9999 OVC009/// 10/10 Q1004
  • 240330Z AUTO 20008KT 9999 OVC013/// 10/10 Q1004

TAF TAF LYVR
Valide du 24 à 06h jusqu'au 25 à 06h UTC


240500Z 2406/2506 24008KT 9999 OVC008 TX16/2412Z TN06/2504Z
BECMG 2406/2408 SCT025
TEMPO 2414/2418 26015G25KT 4000 TSRA SCT030CB SCT040



MET'MAP, la Météo Aéronautique d'un coup d'oeil ! - Copyright ORBIFLY Décembre 2007 - Disclaimer

ORBIFLY MET'MAP TEAM :

Programmation & Développement : Alexandra Zaïnal
Sur une idée originale de : Baudouin d'Aumeries
Soutien technique & logistique : Manuel Goepfert
Assistance : Marc-Olivier Méhu




SOURCES & CREDITS :

   NOAA